Time,TemperatureF,DewpointF,PressureIn,WindDirection,WindDirectionDegrees,WindSpeedMPH,WindSpeedGustMPH,Humidity,HourlyPrecipIn,Conditions,Clouds,dailyrainin,SoftwareType,DateUTC
2013-02-13 00:08:00,30.5,22.0,29.97,SE,132,0.0,1.0,72,0.00,,,0.00,weatherlink.com 1.10,2013-02-13 05:08:00,
2013-02-13 00:23:00,30.0,22.0,29.97,SE,132,0.0,0.0,73,0.00,,,0.00,weatherlink.com 1.10,2013-02-13 05:23:00,
2013-02-13 00:38:00,29.1,22.0,29.97,SE,132,0.0,0.0,75,0.00,,,0.00,weatherlink.com 1.10,2013-02-13 05:38:00,
2013-02-13 00:54:00,28.3,22.0,29.97,SE,132,0.0,0.0,76,0.00,,,0.00,weatherlink.com 1.10,2013-02-13 05:54:00,
2013-02-13 01:09:00,28.5,22.0,29.97,SE,132,0.0,1.0,76,0.00,,,0.00,weatherlink.com 1.10,2013-02-13 06:09:00,
2013-02-13 01:24:00,27.8,22.0,29.98,SE,132,0.0,0.0,78,0.00,,,0.00,weatherlink.com 1.10,2013-02-13 06:24:00,
2013-02-13 01:39:00,28.6,22.0,29.98,SE,131,0.0,1.0,77,0.00,,,0.00,weatherlink.com 1.10,2013-02-13 06:39:00,
2013-02-13 01:54:00,28.7,22.0,29.99,SE,131,0.0,1.0,76,0.00,,,0.00,weatherlink.com 1.10,2013-02-13 06:54:00,
2013-02-13 02:09:00,28.3,22.0,29.98,SE,131,0.0,0.0,77,0.00,,,0.00,weatherlink.com 1.10,2013-02-13 07:09:00,
2013-02-13 02:24:00,27.6,22.0,29.98,SE,131,0.0,0.0,78,0.00,,,0.00,weatherlink.com 1.10,2013-02-13 07:24:00,
2013-02-13 02:39:00,27.1,21.0,29.98,SE,131,0.0,0.0,79,0.00,,,0.00,weatherlink.com 1.10,2013-02-13 07:39:00,
2013-02-13 02:54:00,26.9,22.0,29.98,SE,131,0.0,0.0,80,0.00,,,0.00,weatherlink.com 1.10,2013-02-13 07:54:00,
2013-02-13 03:09:00,26.8,21.0,29.97,SE,131,0.0,0.0,80,0.00,,,0.00,weatherlink.com 1.10,2013-02-13 08:09:00,
2013-02-13 03:24:00,27.1,22.0,29.96,SE,127,0.0,0.0,80,0.00,,,0.00,weatherlink.com 1.10,2013-02-13 08:24:00,
2013-02-13 03:39:00,27.2,22.0,29.95,ESE,122,0.0,1.0,80,0.00,,,0.00,weatherlink.com 1.10,2013-02-13 08:39:00,
2013-02-13 03:54:00,27.3,22.0,29.95,ESE,122,0.0,0.0,80,0.00,,,0.00,weatherlink.com 1.10,2013-02-13 08:54:00,
2013-02-13 04:09:00,27.5,22.0,29.94,ESE,121,0.0,1.0,79,0.00,,,0.00,weatherlink.com 1.10,2013-02-13 09:09:00,
2013-02-13 04:24:00,27.3,22.0,29.93,ESE,122,0.0,0.0,79,0.00,,,0.00,weatherlink.com 1.10,2013-02-13 09:24:00,
2013-02-13 04:39:00,27.0,22.0,29.93,ESE,122,0.0,0.0,80,0.00,,,0.00,weatherlink.com 1.10,2013-02-13 09:39:00,
2013-02-13 04:54:00,26.9,22.0,29.93,ESE,121,0.0,0.0,80,0.00,,,0.00,weatherlink.com 1.10,2013-02-13 09:54:00,
2013-02-13 05:09:00,26.6,21.0,29.93,ESE,121,0.0,0.0,80,0.00,,,0.00,weatherlink.com 1.10,2013-02-13 10:09:00,
2013-02-13 05:24:00,26.1,21.0,29.94,ESE,122,0.0,0.0,81,0.00,,,0.00,weatherlink.com 1.10,2013-02-13 10:24:00,
2013-02-13 05:39:00,25.8,21.0,29.95,ESE,122,0.0,0.0,83,0.00,,,0.00,weatherlink.com 1.10,2013-02-13 10:39:00,
2013-02-13 05:54:00,25.9,21.0,29.95,ESE,121,0.0,0.0,82,0.00,,,0.00,weatherlink.com 1.10,2013-02-13 10:54:00,
2013-02-13 06:09:00,26.2,21.0,29.94,ESE,122,0.0,0.0,81,0.00,,,0.00,weatherlink.com 1.10,2013-02-13 11:09:00,
2013-02-13 06:24:00,26.2,21.0,29.94,ESE,122,0.0,0.0,81,0.00,,,0.00,weatherlink.com 1.10,2013-02-13 11:24:00,
2013-02-13 06:39:00,26.2,21.0,29.94,ESE,122,0.0,0.0,81,0.00,,,0.00,weatherlink.com 1.10,2013-02-13 11:39:00,
2013-02-13 06:54:00,26.2,21.0,29.94,ESE,121,0.0,0.0,81,0.00,,,0.00,weatherlink.com 1.10,2013-02-13 11:54:00,
2013-02-13 07:09:00,26.3,21.0,29.93,ESE,122,0.0,0.0,80,0.00,,,0.00,weatherlink.com 1.10,2013-02-13 12:09:00,
2013-02-13 07:24:00,26.4,21.0,29.94,ESE,121,0.0,0.0,81,0.00,,,0.00,weatherlink.com 1.10,2013-02-13 12:24:00,
2013-02-13 07:39:00,26.9,22.0,29.94,ESE,121,0.0,0.0,80,0.00,,,0.00,weatherlink.com 1.10,2013-02-13 12:39:00,
2013-02-13 07:55:00,27.3,22.0,29.94,ESE,121,0.0,0.0,80,0.00,,,0.00,weatherlink.com 1.10,2013-02-13 12:55:00,
2013-02-13 08:10:00,27.9,22.0,29.94,ESE,122,0.0,0.0,79,0.00,,,0.00,weatherlink.com 1.10,2013-02-13 13:10:00,
2013-02-13 08:24:00,28.9,23.0,29.93,ESE,121,0.0,0.0,77,0.00,,,0.00,weatherlink.com 1.10,2013-02-13 13:24:00,
2013-02-13 08:39:00,30.0,23.0,29.92,ESE,121,0.0,1.0,74,0.00,,,0.00,weatherlink.com 1.10,2013-02-13 13:39:00,
2013-02-13 08:54:00,31.4,23.0,29.92,SW,228,0.0,0.0,71,0.00,,,0.00,weatherlink.com 1.10,2013-02-13 13:54:00,
2013-02-13 09:09:00,32.8,23.0,29.92,ESE,121,0.0,1.0,67,0.00,,,0.00,weatherlink.com 1.10,2013-02-13 14:09:00,
2013-02-13 09:25:00,34.3,22.0,29.92,WSW,238,0.0,2.0,62,0.00,,,0.00,weatherlink.com 1.10,2013-02-13 14:25:00,
2013-02-13 09:39:00,35.6,23.0,29.91,SE,124,0.0,2.0,61,0.00,,,0.00,weatherlink.com 1.10,2013-02-13 14:39:00,
2013-02-13 09:55:00,36.2,23.0,29.91,WSW,243,1.0,2.0,58,0.00,,,0.00,weatherlink.com 1.10,2013-02-13 14:55:00,
2013-02-13 10:10:00,37.0,23.0,29.90,WSW,250,0.0,1.0,58,0.00,,,0.00,weatherlink.com 1.10,2013-02-13 15:10:00,
2013-02-13 10:25:00,38.5,24.0,29.92,North,9,0.0,3.0,57,0.00,,,0.00,weatherlink.com 1.10,2013-02-13 15:25:00,
2013-02-13 10:40:00,39.0,24.0,29.93,ENE,60,1.0,1.0,56,0.00,,,0.00,weatherlink.com 1.10,2013-02-13 15:40:00,
2013-02-13 10:55:00,38.7,25.0,29.93,NE,55,0.0,1.0,58,0.00,,,0.00,weatherlink.com 1.10,2013-02-13 15:55:00,
2013-02-13 11:10:00,38.9,24.0,29.93,ENE,68,0.0,1.0,55,0.00,,,0.00,weatherlink.com 1.10,2013-02-13 16:10:00,
2013-02-13 11:25:00,39.3,25.0,29.91,East,81,0.0,1.0,56,0.00,,,0.00,weatherlink.com 1.10,2013-02-13 16:25:00,
2013-02-13 11:40:00,39.4,25.0,29.90,WSW,248,0.0,1.0,56,0.00,,,0.00,weatherlink.com 1.10,2013-02-13 16:40:00,
2013-02-13 11:55:00,39.5,24.0,29.89,East,84,1.0,2.0,54,0.00,,,0.00,weatherlink.com 1.10,2013-02-13 16:55:00,
2013-02-13 12:10:00,39.1,24.0,29.88,WSW,255,0.0,1.0,54,0.00,,,0.00,weatherlink.com 1.10,2013-02-13 17:10:00,
2013-02-13 12:25:00,39.8,23.0,29.87,WSW,257,0.0,1.0,52,0.00,,,0.00,weatherlink.com 1.10,2013-02-13 17:25:00,
2013-02-13 12:40:00,40.1,24.0,29.86,NNW,333,0.0,1.0,53,0.00,,,0.00,weatherlink.com 1.10,2013-02-13 17:40:00,
2013-02-13 12:55:00,40.4,24.0,29.84,WSW,252,1.0,2.0,52,0.00,,,0.00,weatherlink.com 1.10,2013-02-13 17:55:00,
2013-02-13 13:10:00,41.6,25.0,29.82,South,181,0.0,2.0,51,0.00,,,0.00,weatherlink.com 1.10,2013-02-13 18:10:00,
2013-02-13 13:25:00,41.7,24.0,29.80,WSW,257,1.0,3.0,50,0.00,,,0.00,weatherlink.com 1.10,2013-02-13 18:25:00,
2013-02-13 13:40:00,43.2,25.0,29.80,SW,219,0.0,4.0,48,0.00,,,0.00,weatherlink.com 1.10,2013-02-13 18:40:00,
2013-02-13 13:55:00,43.9,25.0,29.80,ESE,113,1.0,2.0,48,0.00,,,0.00,weatherlink.com 1.10,2013-02-13 18:55:00,
2013-02-13 14:10:00,43.2,25.0,29.81,WSW,255,0.0,2.0,49,0.00,,,0.00,weatherlink.com 1.10,2013-02-13 19:10:00,
2013-02-13 14:25:00,42.2,24.0,29.80,SSW,212,0.0,1.0,49,0.00,,,0.00,weatherlink.com 1.10,2013-02-13 19:25:00,
2013-02-13 14:40:00,41.4,24.0,29.79,East,90,0.0,1.0,51,0.00,,,0.00,weatherlink.com 1.10,2013-02-13 19:40:00,
2013-02-13 14:55:00,41.7,26.0,29.79,East,89,0.0,1.0,53,0.00,,,0.00,weatherlink.com 1.10,2013-02-13 19:55:00,
2013-02-13 15:10:00,41.4,25.0,29.79,East,91,0.0,0.0,53,0.00,,,0.00,weatherlink.com 1.10,2013-02-13 20:10:00,
2013-02-13 15:25:00,41.0,25.0,29.78,SW,222,1.0,1.0,53,0.00,,,0.00,weatherlink.com 1.10,2013-02-13 20:25:00,
2013-02-13 15:40:00,40.9,26.0,29.78,North,360,0.0,1.0,55,0.00,,,0.00,weatherlink.com 1.10,2013-02-13 20:40:00,
2013-02-13 15:55:00,40.6,26.0,29.78,NE,34,0.0,1.0,56,0.00,,,0.00,weatherlink.com 1.10,2013-02-13 20:55:00,
2013-02-13 16:11:00,39.8,25.0,29.77,NNE,33,0.0,0.0,56,0.00,,,0.00,weatherlink.com 1.10,2013-02-13 21:11:00,
2013-02-13 16:25:00,39.1,25.0,29.76,NNE,31,0.0,0.0,57,0.00,,,0.00,weatherlink.com 1.10,2013-02-13 21:25:00,
2013-02-13 16:41:00,38.6,25.0,29.75,NNE,32,0.0,0.0,59,0.00,,,0.00,weatherlink.com 1.10,2013-02-13 21:41:00,
2013-02-13 16:55:00,38.0,25.0,29.73,NNE,32,0.0,0.0,59,0.00,,,0.00,weatherlink.com 1.10,2013-02-13 21:55:00,
2013-02-13 17:10:00,37.5,25.0,29.73,NNE,32,0.0,1.0,62,0.00,,,0.00,weatherlink.com 1.10,2013-02-13 22:10:00,
2013-02-13 17:26:00,37.1,25.0,29.73,NNE,31,0.0,0.0,62,0.00,,,0.00,weatherlink.com 1.10,2013-02-13 22:26:00,
2013-02-13 17:41:00,36.5,25.0,29.73,NNE,32,0.0,0.0,64,0.00,,,0.00,weatherlink.com 1.10,2013-02-13 22:41:00,
2013-02-13 17:56:00,36.4,26.0,29.71,NNE,32,0.0,1.0,65,0.00,,,0.00,weatherlink.com 1.10,2013-02-13 22:56:00,
2013-02-13 18:11:00,36.1,26.0,29.71,NNE,32,0.0,0.0,67,0.00,,,0.00,weatherlink.com 1.10,2013-02-13 23:11:00,
2013-02-13 18:26:00,36.0,26.0,29.73,NNE,32,0.0,0.0,67,0.00,,,0.00,weatherlink.com 1.10,2013-02-13 23:26:00,
2013-02-13 18:41:00,35.9,27.0,29.74,NNE,32,0.0,0.0,69,0.00,,,0.00,weatherlink.com 1.10,2013-02-13 23:41:00,
2013-02-13 18:56:00,35.7,27.0,29.74,NNE,32,0.0,0.0,71,0.00,,,0.00,weatherlink.com 1.10,2013-02-13 23:56:00,
2013-02-13 19:11:00,35.3,27.0,29.74,NNE,32,0.0,0.0,73,0.00,,,0.00,weatherlink.com 1.10,2013-02-14 00:11:00,
2013-02-13 19:26:00,34.9,28.0,29.74,NNE,32,0.0,0.0,75,0.00,,,0.00,weatherlink.com 1.10,2013-02-14 00:26:00,
2013-02-13 19:41:00,34.8,28.0,29.73,NNE,32,0.0,0.0,77,0.00,,,0.00,weatherlink.com 1.10,2013-02-14 00:41:00,
2013-02-13 19:56:00,34.3,28.0,29.73,NNE,31,0.0,0.0,78,0.00,,,0.00,weatherlink.com 1.10,2013-02-14 00:56:00,
2013-02-13 20:11:00,33.9,28.0,29.73,NNE,31,0.0,0.0,80,0.00,,,0.00,weatherlink.com 1.10,2013-02-14 01:11:00,
2013-02-13 20:26:00,33.7,29.0,29.74,NNE,32,0.0,0.0,82,0.00,,,0.00,weatherlink.com 1.10,2013-02-14 01:26:00,
2013-02-13 20:41:00,33.7,29.0,29.74,NNE,32,0.0,0.0,83,0.00,,,0.00,weatherlink.com 1.10,2013-02-14 01:41:00,
2013-02-13 20:56:00,33.3,29.0,29.75,NNE,32,0.0,0.0,85,0.00,,,0.00,weatherlink.com 1.10,2013-02-14 01:56:00,
2013-02-13 21:11:00,32.7,30.0,29.74,NNE,32,0.0,0.0,88,0.00,,,0.00,weatherlink.com 1.10,2013-02-14 02:11:00,
2013-02-13 21:26:00,32.3,30.0,29.74,NNE,32,0.0,0.0,90,0.00,,,0.00,weatherlink.com 1.10,2013-02-14 02:26:00,
2013-02-13 21:41:00,32.1,30.0,29.74,NNE,31,0.0,0.0,91,0.00,,,0.00,weatherlink.com 1.10,2013-02-14 02:41:00,
2013-02-13 21:56:00,32.0,30.0,29.73,NNE,32,0.0,0.0,92,0.00,,,0.00,weatherlink.com 1.10,2013-02-14 02:56:00,
2013-02-13 22:11:00,31.9,30.0,29.73,NNE,31,0.0,0.0,93,0.00,,,0.00,weatherlink.com 1.10,2013-02-14 03:11:00,
2013-02-13 22:26:00,31.8,30.0,29.73,ESE,118,0.0,0.0,93,0.00,,,0.00,weatherlink.com 1.10,2013-02-14 03:26:00,
2013-02-13 22:41:00,31.9,30.0,29.73,ESE,115,0.0,1.0,93,0.00,,,0.00,weatherlink.com 1.10,2013-02-14 03:41:00,
2013-02-13 22:57:00,31.8,30.0,29.73,ESE,115,0.0,0.0,94,0.00,,,0.00,weatherlink.com 1.10,2013-02-14 03:57:00,
2013-02-13 23:11:00,31.8,30.0,29.73,SW,226,0.0,1.0,94,0.00,,,0.00,weatherlink.com 1.10,2013-02-14 04:11:00,
2013-02-13 23:41:00,31.8,30.0,29.73,ESE,119,0.0,1.0,94,0.00,,,0.00,weatherlink.com 1.10,2013-02-14 04:41:00,